createdAt,value
2023-05-19T00:04:16.165Z,101179.63
2023-05-19T00:09:13.342Z,101134.94
2023-05-19T00:14:10.384Z,101140.59
2023-05-19T00:19:09.451Z,101136.53
2023-05-19T00:24:07.630Z,101115.13
2023-05-19T00:29:05.156Z,101141.28
2023-05-19T00:34:02.283Z,101183.66
2023-05-19T00:38:59.069Z,101188.22
2023-05-19T00:43:56.735Z,101130.31
2023-05-19T00:48:54.466Z,101203.97
2023-05-19T00:53:51.591Z,101212.16
2023-05-19T00:58:51.596Z,101206.94
2023-05-19T01:03:49.521Z,101210.03
2023-05-19T01:08:46.407Z,101210.03
2023-05-19T01:13:43.937Z,101190.38
2023-05-19T01:18:50.857Z,101207.91
2023-05-19T01:23:56.432Z,101160.34
2023-05-19T01:29:13.690Z,101205.59
2023-05-19T01:34:15.287Z,101177.63
2023-05-19T01:39:13.146Z,101203.34
2023-05-19T01:44:10.587Z,101151.63
2023-05-19T01:49:08.067Z,101168.84
2023-05-19T01:54:05.642Z,101192.06
2023-05-19T01:59:14.509Z,101182.84
2023-05-19T02:04:19.675Z,101188.13
2023-05-19T02:09:23.211Z,101207.38
2023-05-19T02:14:29.552Z,101210.22
2023-05-19T02:19:28.298Z,101223.81
2023-05-19T02:24:26.704Z,101204.59
2023-05-19T02:29:23.602Z,101217.22
2023-05-19T02:34:20.774Z,101236.13
2023-05-19T02:39:17.901Z,101245.16
2023-05-19T02:44:15.360Z,101253.31
2023-05-19T02:49:12.269Z,101193.25
2023-05-19T02:54:09.383Z,101254.28
2023-05-19T02:59:06.305Z,101262.13
2023-05-19T03:04:04.061Z,101225.56
2023-05-19T03:09:00.873Z,101271.25
2023-05-19T03:13:58.457Z,101255.75
2023-05-19T03:18:55.557Z,101284.66
2023-05-19T03:23:54.074Z,101258.75
2023-05-19T03:28:51.274Z,101295.56
2023-05-19T03:33:48.132Z,101301.91
2023-05-19T03:38:45.195Z,101270.81
2023-05-19T03:43:42.767Z,101311.91
2023-05-19T03:48:40.756Z,101318.28
2023-05-19T03:54:04.204Z,101319.09
2023-05-19T03:59:01.940Z,101309.53
2023-05-19T04:03:58.771Z,101272.09
2023-05-19T04:08:55.757Z,101323.69
2023-05-19T04:13:52.746Z,101294.59
2023-05-19T04:18:53.345Z,101321.03
2023-05-19T04:23:50.137Z,101327.69
2023-05-19T04:28:47.820Z,101329.09
2023-05-19T04:33:49.120Z,101327.69
2023-05-19T04:38:48.764Z,101336.06
2023-05-19T04:43:47.841Z,101322.63
2023-05-19T04:48:45.626Z,101300.41
2023-05-19T04:53:43.090Z,101344.44
2023-05-19T04:58:44.180Z,101345.31
2023-05-19T05:03:41.957Z,101350.91
2023-05-19T05:08:40.843Z,101353.22
2023-05-19T05:13:38.413Z,101351.66
2023-05-19T05:18:38.070Z,101328.88
2023-05-19T05:23:35.913Z,101351.47
2023-05-19T05:28:34.014Z,101364.09
2023-05-19T05:33:31.557Z,101352.78
2023-05-19T05:38:29.967Z,101361.03
2023-05-19T05:43:27.418Z,101372.66
2023-05-19T05:48:31.848Z,101316.13
2023-05-19T05:53:31.496Z,101380.59
2023-05-19T05:58:32.254Z,101370.63
2023-05-19T06:03:29.289Z,101380.38
2023-05-19T06:08:31.703Z,101371.22
2023-05-19T06:13:28.704Z,101386.66
2023-05-19T06:18:26.179Z,101396.66
2023-05-19T06:23:24.566Z,101369.44
2023-05-19T06:28:22.185Z,101356.50
2023-05-19T06:33:21.079Z,101396.19
2023-05-19T06:38:17.990Z,101384.03
2023-05-19T06:43:15.046Z,101407.75
2023-05-19T06:48:24.467Z,101408.53
2023-05-19T06:53:21.514Z,101397.44
2023-05-19T06:58:18.870Z,101409.03
2023-05-19T07:03:15.910Z,101403.94
2023-05-19T07:08:17.193Z,101380.44
2023-05-19T07:13:14.435Z,101391.00
2023-05-19T07:18:11.613Z,101391.00
2023-05-19T07:23:11.826Z,101398.59
2023-05-19T07:28:09.657Z,101373.06
2023-05-19T07:33:06.707Z,101375.13
2023-05-19T07:38:03.764Z,101330.34
2023-05-19T07:43:00.750Z,101393.34
2023-05-19T07:47:58.502Z,101339.84
2023-05-19T07:52:55.944Z,101365.28
2023-05-19T07:57:52.786Z,101390.91
2023-05-19T08:02:49.599Z,101352.88
2023-05-19T08:07:47.176Z,101387.50
2023-05-19T08:12:44.008Z,101392.34
2023-05-19T08:17:40.877Z,101387.75
2023-05-19T08:22:37.899Z,101388.22
2023-05-19T08:27:35.374Z,101383.25
2023-05-19T08:32:32.305Z,101355.91
2023-05-19T08:37:29.093Z,101393.25
2023-05-19T08:42:25.952Z,101332.63
2023-05-19T08:47:23.740Z,101339.81
2023-05-19T08:52:27.576Z,101382.06
2023-05-19T08:57:25.382Z,101381.97
2023-05-19T09:02:25.485Z,101374.97
2023-05-19T09:07:25.674Z,101373.78
2023-05-19T09:12:28.250Z,101355.88
2023-05-19T09:17:25.949Z,101373.72
2023-05-19T09:22:26.041Z,101325.69
2023-05-19T09:27:23.167Z,101371.91
2023-05-19T09:32:27.835Z,101334.72
2023-05-19T09:37:27.903Z,101364.31
2023-05-19T09:42:25.861Z,101351.06
2023-05-19T09:47:24.713Z,101291.97
2023-05-19T09:52:22.924Z,101325.75
2023-05-19T09:57:27.729Z,101343.25
2023-05-19T10:02:26.345Z,101347.94
2023-05-19T10:07:26.070Z,101346.84
2023-05-19T10:12:24.114Z,101349.94
2023-05-19T10:17:22.076Z,101325.25
2023-05-19T10:22:18.952Z,101319.53
2023-05-19T10:27:18.379Z,101315.00
2023-05-19T10:32:23.452Z,101322.75
2023-05-19T10:37:30.638Z,101278.56
2023-05-19T10:42:47.768Z,101323.81
2023-05-19T10:47:45.383Z,101222.84
2023-05-19T10:52:45.331Z,101298.44
2023-05-19T10:57:53.893Z,101298.09
2023-05-19T11:02:55.477Z,101279.13
2023-05-19T11:07:56.268Z,101238.66
2023-05-19T11:12:58.247Z,101289.47
2023-05-19T11:17:55.417Z,101273.66
2023-05-19T11:23:06.357Z,101284.72
2023-05-19T11:28:10.341Z,101282.31
2023-05-19T11:33:08.824Z,101237.00
2023-05-19T11:38:17.890Z,101259.00
2023-05-19T11:43:16.080Z,101255.50
2023-05-19T11:48:13.249Z,101230.84
2023-05-19T11:53:12.404Z,101224.28
2023-05-19T11:58:09.465Z,101151.56
2023-05-19T12:03:09.969Z,101178.09
2023-05-19T12:08:08.308Z,101173.00
2023-05-19T12:13:08.912Z,101205.69
2023-05-19T12:18:07.337Z,101195.56
2023-05-19T12:23:05.125Z,101213.78
2023-05-19T12:28:02.673Z,101182.31
2023-05-19T12:32:59.670Z,101196.31
2023-05-19T12:38:01.937Z,101171.78
2023-05-19T12:42:58.873Z,101178.09
2023-05-19T12:48:01.212Z,101151.88
2023-05-19T12:52:59.217Z,101165.06
2023-05-19T12:57:57.627Z,101128.13
2023-05-19T13:02:56.761Z,101168.47
2023-05-19T13:08:07.330Z,101188.56
2023-05-19T13:13:08.538Z,101175.03
2023-05-19T13:18:08.296Z,101176.72
2023-05-19T13:23:06.081Z,101190.84
2023-05-19T13:28:05.217Z,101176.28
2023-05-19T13:33:02.398Z,101143.25
2023-05-19T13:38:03.789Z,101182.16
2023-05-19T13:43:02.470Z,101139.13
2023-05-19T13:48:05.429Z,101170.56
2023-05-19T13:53:04.877Z,101209.38
2023-05-19T13:58:06.063Z,101208.25
2023-05-19T14:03:03.509Z,101165.81
2023-05-19T14:08:00.632Z,101223.84
2023-05-19T14:18:06.895Z,101297.16
2023-05-19T14:23:04.228Z,101295.09
2023-05-19T14:28:04.847Z,101305.56
2023-05-19T14:33:01.920Z,101349.09
2023-05-19T14:37:59.576Z,101337.84
2023-05-19T14:42:56.440Z,101329.66
2023-05-19T14:47:53.567Z,101313.25
2023-05-19T14:52:50.836Z,101238.78
2023-05-19T14:57:50.090Z,101286.66
2023-05-19T15:02:47.385Z,101308.00
2023-05-19T15:07:47.198Z,101287.03
2023-05-19T15:12:46.615Z,101339.09
2023-05-19T15:17:47.329Z,101352.91
2023-05-19T15:22:51.595Z,101325.94
2023-05-19T15:27:53.192Z,101334.13
2023-05-19T15:32:50.975Z,101381.88
2023-05-19T15:37:47.924Z,101338.53
2023-05-19T15:42:51.298Z,101392.13
2023-05-19T15:47:49.012Z,101362.41
2023-05-19T15:52:46.962Z,101371.13
2023-05-19T15:57:43.981Z,101390.06
2023-05-19T16:02:40.882Z,101355.47
2023-05-19T16:07:37.797Z,101360.56
2023-05-19T16:12:35.979Z,101351.00
2023-05-19T16:17:32.934Z,101314.56
2023-05-19T16:22:29.971Z,101353.34
2023-05-19T16:27:27.040Z,101358.28
2023-05-19T16:32:24.900Z,101321.06
2023-05-19T16:37:22.196Z,101355.72
2023-05-19T16:42:19.126Z,101302.25
2023-05-19T16:47:20.172Z,101320.19
2023-05-19T16:52:17.887Z,101362.09
2023-05-19T16:57:18.158Z,101324.78
2023-05-19T17:02:15.319Z,101403.09
2023-05-19T17:07:15.016Z,101366.75
2023-05-19T17:12:12.737Z,101380.41
2023-05-19T17:17:09.861Z,101413.97
2023-05-19T17:22:06.804Z,101418.97
2023-05-19T17:27:08.918Z,101355.56
2023-05-19T17:32:09.957Z,101408.47
2023-05-19T17:37:09.112Z,101394.03
2023-05-19T17:42:05.987Z,101379.75
2023-05-19T17:47:06.713Z,101380.16
2023-05-19T17:52:05.365Z,101391.19
2023-05-19T17:57:07.688Z,101403.31
2023-05-19T18:02:05.519Z,101408.09
2023-05-19T18:07:03.511Z,101414.09
2023-05-19T18:12:01.740Z,101406.63
2023-05-19T18:16:58.991Z,101407.50
2023-05-19T18:21:56.154Z,101407.47
2023-05-19T18:26:53.446Z,101454.16
2023-05-19T18:31:51.381Z,101352.03
2023-05-19T18:36:50.385Z,101425.41
2023-05-19T18:41:47.602Z,101443.47
2023-05-19T18:46:44.556Z,101443.38
2023-05-19T18:51:42.985Z,101463.88
2023-05-19T18:56:39.848Z,101464.72
2023-05-19T19:01:36.758Z,101464.72
2023-05-19T19:06:37.304Z,101466.34
2023-05-19T19:11:35.030Z,101423.72
2023-05-19T19:16:32.033Z,101439.78
2023-05-19T19:21:29.418Z,101472.16
2023-05-19T19:26:28.315Z,101474.81
2023-05-19T19:31:28.189Z,101488.34
2023-05-19T19:36:25.632Z,101498.25
2023-05-19T19:41:22.858Z,101459.59
2023-05-19T19:46:19.933Z,101474.47
2023-05-19T19:51:17.714Z,101451.16
2023-05-19T19:56:14.653Z,101506.03
2023-05-19T20:01:11.757Z,101481.34
2023-05-19T20:06:08.751Z,101503.72
2023-05-19T20:11:06.796Z,101489.31
2023-05-19T20:16:03.953Z,101495.53
2023-05-19T20:21:00.892Z,101489.31
2023-05-19T20:26:10.892Z,101477.25
2023-05-19T20:31:10.258Z,101409.84
2023-05-19T20:36:07.216Z,101500.78
2023-05-19T20:41:04.477Z,101457.94
2023-05-19T20:46:03.132Z,101470.88
2023-05-19T20:51:00.862Z,101471.94
2023-05-19T20:55:58.014Z,101517.53
2023-05-19T21:00:56.843Z,101508.47
2023-05-19T21:05:54.327Z,101510.59
2023-05-19T21:10:52.068Z,101512.03
2023-05-19T21:15:48.890Z,101507.47
2023-05-19T21:20:45.839Z,101518.19
2023-05-19T21:25:44.525Z,101530.25
2023-05-19T21:30:47.348Z,101518.50
2023-05-19T21:35:45.098Z,101519.22
2023-05-19T21:40:46.738Z,101490.28
2023-05-19T21:45:46.783Z,101527.25
2023-05-19T21:50:43.745Z,101514.00
2023-05-19T21:55:40.686Z,101533.56
2023-05-19T22:00:37.697Z,101490.69
2023-05-19T22:05:37.450Z,101536.78
2023-05-19T22:10:36.410Z,101539.41
2023-05-19T22:15:33.397Z,101529.34
2023-05-19T22:20:30.202Z,101519.41
2023-05-19T22:25:28.054Z,101500.50
2023-05-19T22:30:25.207Z,101505.25
2023-05-19T22:35:22.378Z,101511.47
2023-05-19T22:40:19.485Z,101505.16
2023-05-19T22:45:17.204Z,101505.63
2023-05-19T22:50:14.161Z,101492.56
2023-05-19T22:55:11.097Z,101456.53
2023-05-19T23:00:09.190Z,101472.91
2023-05-19T23:05:08.082Z,101513.81
2023-05-19T23:10:06.796Z,101509.22
2023-05-19T23:15:04.811Z,101518.41
2023-05-19T23:20:02.050Z,101510.50
2023-05-19T23:25:01.311Z,101418.84
2023-05-19T23:29:58.382Z,101503.47
2023-05-19T23:34:55.390Z,101460.69
2023-05-19T23:39:52.304Z,101488.94
2023-05-19T23:44:50.034Z,101466.13
2023-05-19T23:49:46.822Z,101481.28
2023-05-19T23:54:43.702Z,101466.88
2023-05-19T23:59:40.479Z,101439.84
